createdAt,value
2018-06-27T00:17:56.892Z,21.30
2018-06-27T00:20:29.453Z,21.10
2018-06-27T00:23:01.799Z,21.30
2018-06-27T00:25:32.366Z,21.50
2018-06-27T00:28:06.981Z,21.60
2018-06-27T00:30:40.493Z,21.60
2018-06-27T00:33:13.266Z,21.30
2018-06-27T00:35:45.671Z,21.10
2018-06-27T00:38:19.813Z,21.10
2018-06-27T00:40:53.141Z,21.00
2018-06-27T00:43:26.303Z,21.00
2018-06-27T00:45:57.091Z,21.00
2018-06-27T00:48:30.143Z,21.00
2018-06-27T00:51:01.772Z,21.10
2018-06-27T00:53:55.257Z,21.20
2018-06-27T00:56:28.152Z,21.40
2018-06-27T00:59:04.466Z,21.50
2018-06-27T01:01:36.904Z,21.50
2018-06-27T01:04:17.127Z,21.50
2018-06-27T01:06:53.431Z,21.40
2018-06-27T01:09:25.943Z,21.30
2018-06-27T01:12:06.060Z,21.30
2018-06-27T01:14:39.578Z,21.20
2018-06-27T01:17:12.055Z,21.10
2018-06-27T01:19:45.408Z,21.10
2018-06-27T01:22:22.528Z,21.00
2018-06-27T01:24:58.635Z,21.10
2018-06-27T01:27:43.553Z,21.00
2018-06-27T01:30:16.170Z,20.80
2018-06-27T01:32:49.334Z,20.70
2018-06-27T01:35:24.999Z,20.50
2018-06-27T01:38:03.209Z,20.40
2018-06-27T01:43:30.530Z,20.30
2018-06-27T01:46:03.032Z,20.40
2018-06-27T01:48:36.492Z,20.50
2018-06-27T01:51:13.405Z,20.30
2018-06-27T01:53:44.020Z,20.30
2018-06-27T01:56:15.241Z,20.10
2018-06-27T01:58:49.508Z,19.90
2018-06-27T02:01:24.227Z,19.40
2018-06-27T02:03:58.276Z,19.20
2018-06-27T02:06:33.858Z,19.00
2018-06-27T02:09:06.880Z,18.80
2018-06-27T02:11:39.058Z,18.60
2018-06-27T02:14:12.198Z,18.70
2018-06-27T02:16:47.412Z,18.60
2018-06-27T02:19:20.020Z,18.60
2018-06-27T02:21:52.419Z,18.70
2018-06-27T02:24:27.643Z,18.70
2018-06-27T02:27:00.336Z,18.70
2018-06-27T02:29:34.356Z,18.70
2018-06-27T02:32:07.061Z,18.70
2018-06-27T02:34:39.327Z,18.50
2018-06-27T02:37:11.579Z,18.20
2018-06-27T02:39:44.088Z,18.20
2018-06-27T02:42:16.367Z,18.20
2018-06-27T02:44:48.577Z,18.10
2018-06-27T02:47:20.738Z,18.20
2018-06-27T02:53:13.892Z,17.90
2018-06-27T02:55:46.446Z,18.00
2018-06-27T02:58:19.198Z,17.80
2018-06-27T03:00:51.743Z,17.90
2018-06-27T03:03:25.497Z,18.00
2018-06-27T03:05:58.128Z,18.00
2018-06-27T03:08:30.592Z,17.90
2018-06-27T03:11:03.132Z,18.00
2018-06-27T03:13:35.614Z,18.00
2018-06-27T03:16:09.222Z,18.00
2018-06-27T03:18:50.376Z,18.00
2018-06-27T03:21:26.510Z,18.00
2018-06-27T03:23:59.078Z,17.90
2018-06-27T03:26:31.888Z,18.00
2018-06-27T03:29:04.369Z,18.00
2018-06-27T03:31:37.105Z,18.00
2018-06-27T03:34:12.337Z,18.00
2018-06-27T03:36:45.181Z,18.10
2018-06-27T03:39:22.240Z,18.10
2018-06-27T03:41:55.896Z,18.10
2018-06-27T03:44:33.013Z,18.10
2018-06-27T03:47:06.853Z,18.10
2018-06-27T03:49:40.668Z,18.10
2018-06-27T03:52:14.028Z,18.10
2018-06-27T03:54:46.794Z,18.00
2018-06-27T03:57:19.319Z,18.10
2018-06-27T03:59:52.023Z,18.00
2018-06-27T04:02:24.712Z,18.00
2018-06-27T04:04:57.156Z,18.00
2018-06-27T04:07:29.694Z,18.10
2018-06-27T04:10:02.391Z,18.10
2018-06-27T04:12:34.939Z,18.00
2018-06-27T04:15:08.965Z,18.00
2018-06-27T04:17:41.534Z,18.00
2018-06-27T04:20:14.256Z,18.00
2018-06-27T04:22:47.375Z,18.00
2018-06-27T04:25:19.970Z,18.00
2018-06-27T04:27:52.497Z,18.00
2018-06-27T04:30:25.016Z,18.00
2018-06-27T04:32:57.559Z,18.00
2018-06-27T04:35:30.165Z,17.90
2018-06-27T04:38:02.925Z,17.90
2018-06-27T04:40:59.927Z,17.90
2018-06-27T04:43:32.678Z,17.80
2018-06-27T04:46:05.467Z,17.80
2018-06-27T04:48:38.256Z,17.90
2018-06-27T04:51:11.033Z,17.90
2018-06-27T04:53:43.831Z,17.90
2018-06-27T04:56:16.567Z,17.80
2018-06-27T04:58:49.232Z,17.80
2018-06-27T05:01:22.682Z,17.80
2018-06-27T05:03:55.453Z,17.80
2018-06-27T05:06:28.324Z,17.80
2018-06-27T05:09:01.237Z,17.90
2018-06-27T05:11:34.589Z,17.90
2018-06-27T05:14:07.618Z,17.90
2018-06-27T05:19:24.799Z,17.90
2018-06-27T05:21:57.558Z,17.90
2018-06-27T05:24:30.547Z,17.90
2018-06-27T05:27:03.391Z,17.90
2018-06-27T05:29:36.201Z,17.90
2018-06-27T05:32:09.044Z,17.90
2018-06-27T05:34:41.823Z,17.90
2018-06-27T05:37:14.769Z,17.90
2018-06-27T05:39:48.181Z,17.90
2018-06-27T05:42:21.163Z,17.90
2018-06-27T05:44:53.995Z,17.90
2018-06-27T05:47:26.724Z,17.80
2018-06-27T05:49:59.366Z,17.80
2018-06-27T05:52:32.231Z,17.80
2018-06-27T05:55:11.211Z,17.80
2018-06-27T05:57:44.000Z,17.80
2018-06-27T06:00:16.890Z,17.70
2018-06-27T06:02:49.540Z,17.70
2018-06-27T06:05:22.436Z,17.60
2018-06-27T06:07:56.587Z,17.60
2018-06-27T06:10:29.282Z,17.60
2018-06-27T06:13:02.031Z,17.60
2018-06-27T06:15:34.954Z,17.60
2018-06-27T06:18:07.815Z,17.60
2018-06-27T06:20:40.481Z,17.60
2018-06-27T06:23:13.271Z,17.60
2018-06-27T06:25:45.908Z,17.60
2018-06-27T06:28:18.699Z,17.70
2018-06-27T06:30:51.504Z,17.70
2018-06-27T06:33:24.171Z,17.70
2018-06-27T06:35:56.924Z,17.70
2018-06-27T06:38:29.640Z,17.70
2018-06-27T06:41:01.700Z,17.80
2018-06-27T06:43:32.789Z,17.80
2018-06-27T06:46:03.726Z,17.80
2018-06-27T06:51:46.285Z,17.80
2018-06-27T06:54:17.025Z,17.80
2018-06-27T06:56:47.545Z,17.70
2018-06-27T07:02:49.276Z,17.70
2018-06-27T07:05:19.903Z,17.70
2018-06-27T07:07:50.380Z,17.70
2018-06-27T07:10:20.960Z,17.70
2018-06-27T07:12:51.619Z,17.70
2018-06-27T07:15:22.009Z,17.70
2018-06-27T07:17:52.592Z,17.70
2018-06-27T07:20:23.193Z,17.70
2018-06-27T07:22:53.816Z,17.70
2018-06-27T07:25:24.313Z,17.60
2018-06-27T07:27:54.777Z,17.70
2018-06-27T07:30:26.987Z,17.70
2018-06-27T07:32:57.445Z,17.70
2018-06-27T07:35:29.851Z,17.70
2018-06-27T07:38:00.253Z,17.70
2018-06-27T07:43:38.007Z,17.60
2018-06-27T07:49:16.154Z,17.50
2018-06-27T07:51:46.988Z,17.50
2018-06-27T07:54:17.715Z,17.40
2018-06-27T07:56:48.488Z,17.40
2018-06-27T07:59:19.354Z,17.30
2018-06-27T08:01:50.299Z,17.30
2018-06-27T08:04:21.417Z,17.30
2018-06-27T08:06:52.799Z,17.30
2018-06-27T08:09:23.792Z,17.30
2018-06-27T08:11:54.484Z,17.30
2018-06-27T08:14:25.206Z,17.30
2018-06-27T08:16:55.970Z,17.30
2018-06-27T08:19:26.716Z,17.30
2018-06-27T08:25:03.973Z,17.40
2018-06-27T08:27:34.596Z,17.40
2018-06-27T08:30:05.543Z,17.40
2018-06-27T08:32:36.321Z,17.40
2018-06-27T08:35:06.898Z,17.40
2018-06-27T08:37:37.607Z,17.40
2018-06-27T08:40:10.258Z,17.40
2018-06-27T08:42:40.976Z,17.30
2018-06-27T08:45:11.668Z,17.30
2018-06-27T08:47:44.252Z,17.20
2018-06-27T08:50:16.934Z,17.30
2018-06-27T08:52:47.590Z,17.30
2018-06-27T08:55:19.804Z,17.20
2018-06-27T08:57:50.468Z,17.30
2018-06-27T09:00:21.171Z,17.20
2018-06-27T09:05:45.174Z,17.10
2018-06-27T09:08:15.776Z,17.10
2018-06-27T09:10:46.326Z,17.10
2018-06-27T09:13:16.858Z,17.10
2018-06-27T09:15:47.574Z,17.00
2018-06-27T09:18:18.825Z,17.00
2018-06-27T09:20:49.547Z,17.10
2018-06-27T09:23:20.046Z,17.10
2018-06-27T09:25:50.681Z,17.00
2018-06-27T09:28:21.247Z,17.00
2018-06-27T09:31:23.604Z,17.00
2018-06-27T09:33:54.281Z,17.00
2018-06-27T09:36:25.069Z,17.00
2018-06-27T09:38:56.079Z,17.10
2018-06-27T09:41:26.868Z,17.10
2018-06-27T09:43:57.574Z,17.10
2018-06-27T09:46:28.244Z,17.10
2018-06-27T09:48:58.957Z,17.10
2018-06-27T09:51:29.661Z,17.00
2018-06-27T09:54:00.278Z,17.00
2018-06-27T09:56:30.905Z,17.00
2018-06-27T09:59:01.619Z,16.90
2018-06-27T10:01:32.356Z,17.00
2018-06-27T10:04:03.036Z,17.00
2018-06-27T10:06:33.680Z,17.00
2018-06-27T10:09:04.742Z,17.00
2018-06-27T10:14:42.791Z,17.00
2018-06-27T10:17:13.587Z,17.00
2018-06-27T10:19:44.137Z,17.00
2018-06-27T10:22:14.761Z,17.00
2018-06-27T10:24:45.337Z,16.90
2018-06-27T10:27:15.772Z,16.80
2018-06-27T10:32:53.178Z,16.70
2018-06-27T10:35:23.620Z,16.70
2018-06-27T10:37:54.053Z,16.70
2018-06-27T10:40:24.622Z,16.70
2018-06-27T10:42:55.166Z,16.70
2018-06-27T10:45:25.721Z,16.70
2018-06-27T10:47:56.079Z,16.80
2018-06-27T10:50:26.662Z,16.80
2018-06-27T10:52:57.122Z,16.80
2018-06-27T10:55:27.567Z,16.80
2018-06-27T10:57:58.036Z,16.80
2018-06-27T11:00:28.542Z,16.90
2018-06-27T11:02:58.987Z,16.90
2018-06-27T11:05:29.495Z,16.90
2018-06-27T11:07:59.865Z,16.90
2018-06-27T11:10:30.331Z,16.90
2018-06-27T11:13:00.852Z,16.80
2018-06-27T11:15:31.389Z,16.70
2018-06-27T11:18:01.952Z,16.70
2018-06-27T11:20:32.370Z,16.60
2018-06-27T11:23:02.863Z,16.60
2018-06-27T11:25:33.321Z,16.60
2018-06-27T11:28:03.762Z,16.60
2018-06-27T11:30:34.338Z,16.60
2018-06-27T11:33:05.001Z,16.60
2018-06-27T11:35:36.066Z,16.60
2018-06-27T11:38:06.708Z,16.60
2018-06-27T11:40:37.154Z,16.60
2018-06-27T11:43:24.665Z,16.60
2018-06-27T11:45:55.817Z,16.70
2018-06-27T11:48:31.381Z,16.70
2018-06-27T11:51:01.906Z,16.70
2018-06-27T11:53:32.338Z,16.70
2018-06-27T11:56:02.765Z,16.70
2018-06-27T11:58:33.426Z,16.70
2018-06-27T12:01:04.276Z,16.70
2018-06-27T12:03:34.847Z,16.80
2018-06-27T12:06:05.377Z,16.80
2018-06-27T12:08:35.876Z,16.80
2018-06-27T12:11:06.325Z,16.80
2018-06-27T12:13:36.722Z,16.80
2018-06-27T12:16:07.169Z,16.70
2018-06-27T12:18:37.655Z,16.70
2018-06-27T12:21:08.236Z,16.70
2018-06-27T12:23:38.690Z,16.70
2018-06-27T12:26:09.048Z,16.80
2018-06-27T12:28:39.563Z,16.70
2018-06-27T12:31:09.924Z,16.70
2018-06-27T12:33:40.342Z,16.70
2018-06-27T12:36:11.635Z,16.80
2018-06-27T12:38:42.285Z,16.80
2018-06-27T12:41:12.732Z,16.80
2018-06-27T12:43:43.574Z,16.80
2018-06-27T12:46:14.220Z,16.90
2018-06-27T12:48:44.702Z,17.00
2018-06-27T12:51:15.366Z,17.00
2018-06-27T12:53:46.010Z,17.10
2018-06-27T12:56:16.477Z,17.10
2018-06-27T12:58:47.132Z,17.20
2018-06-27T13:01:17.612Z,17.20
2018-06-27T13:06:54.924Z,17.50
2018-06-27T13:09:26.270Z,17.60
2018-06-27T13:11:56.855Z,17.80
2018-06-27T13:14:27.471Z,17.90
2018-06-27T13:16:57.945Z,17.90
2018-06-27T13:19:28.593Z,17.90
2018-06-27T13:21:59.069Z,17.90
2018-06-27T13:24:30.638Z,18.00
2018-06-27T13:27:01.194Z,18.10
2018-06-27T13:29:31.859Z,18.10
2018-06-27T13:32:02.359Z,18.30
2018-06-27T13:37:02.102Z,18.60
2018-06-27T13:39:32.638Z,18.80
2018-06-27T13:42:03.151Z,18.80
2018-06-27T13:44:33.724Z,19.00
2018-06-27T13:47:04.354Z,19.40
2018-06-27T13:49:34.952Z,19.40
2018-06-27T13:52:05.493Z,19.40
2018-06-27T13:54:37.849Z,19.30
2018-06-27T13:57:09.783Z,19.70
2018-06-27T13:59:40.394Z,20.00
2018-06-27T14:02:13.733Z,20.40
2018-06-27T14:04:44.403Z,20.80
2018-06-27T14:07:15.097Z,20.70
2018-06-27T14:09:46.178Z,20.80
2018-06-27T14:14:52.802Z,21.40
2018-06-27T14:17:23.322Z,21.50
2018-06-27T14:19:53.849Z,21.50
2018-06-27T14:22:24.462Z,21.50
2018-06-27T14:24:55.739Z,21.50
2018-06-27T14:27:26.454Z,21.60
2018-06-27T14:29:58.139Z,21.80
2018-06-27T14:32:28.741Z,22.00
2018-06-27T14:34:59.254Z,21.70
2018-06-27T14:37:29.872Z,21.50
2018-06-27T14:40:00.686Z,21.10
2018-06-27T14:42:31.422Z,20.90
2018-06-27T14:45:01.936Z,21.00
2018-06-27T14:47:32.645Z,21.00
2018-06-27T14:50:03.466Z,21.00
2018-06-27T14:52:34.480Z,20.90
2018-06-27T14:55:05.515Z,21.10
2018-06-27T15:00:16.728Z,21.30
2018-06-27T15:02:47.532Z,21.40
2018-06-27T15:05:19.677Z,21.40
2018-06-27T15:07:50.172Z,21.10
2018-06-27T15:10:20.813Z,20.90
2018-06-27T15:12:54.974Z,20.80
2018-06-27T15:15:27.056Z,20.80
2018-06-27T15:17:57.532Z,20.90
2018-06-27T15:22:57.763Z,21.40
2018-06-27T15:25:28.653Z,21.80
2018-06-27T15:28:01.484Z,21.70
2018-06-27T15:30:32.869Z,21.40
2018-06-27T15:33:03.424Z,21.60
2018-06-27T15:39:13.490Z,21.70
2018-06-27T15:41:44.342Z,21.60
2018-06-27T15:44:15.333Z,21.70
2018-06-27T15:46:47.061Z,21.60
2018-06-27T15:49:17.994Z,21.50
2018-06-27T15:54:18.475Z,21.10
2018-06-27T15:56:50.101Z,21.10
2018-06-27T15:59:23.094Z,21.00
2018-06-27T16:02:08.242Z,20.90
2018-06-27T16:04:39.747Z,20.70
2018-06-27T16:07:12.247Z,20.40
2018-06-27T16:09:48.083Z,20.30
2018-06-27T16:12:21.305Z,20.30
2018-06-27T16:14:57.588Z,20.80
2018-06-27T16:20:35.505Z,21.40
2018-06-27T16:23:06.380Z,21.50
2018-06-27T16:25:36.982Z,21.60
2018-06-27T16:28:09.396Z,21.70
2018-06-27T16:30:42.292Z,21.80
2018-06-27T16:35:45.024Z,22.50
2018-06-27T16:38:15.500Z,22.40
2018-06-27T16:40:46.022Z,22.50
2018-06-27T16:43:16.506Z,22.80
2018-06-27T16:45:47.024Z,22.70
2018-06-27T17:21:19.204Z,20.60
2018-06-27T17:23:51.231Z,20.40
2018-06-27T17:26:23.773Z,20.40
2018-06-27T17:32:04.452Z,20.30
2018-06-27T17:34:36.855Z,20.30
2018-06-27T17:37:09.513Z,20.30
2018-06-27T17:39:43.073Z,20.30
2018-06-27T17:42:15.874Z,20.20
2018-06-27T17:44:53.672Z,20.10
2018-06-27T17:47:26.148Z,20.00
2018-06-27T17:49:58.766Z,19.90
2018-06-27T17:52:32.175Z,19.60
2018-06-27T17:55:04.631Z,19.50
2018-06-27T17:57:37.060Z,19.50
2018-06-27T18:00:10.278Z,19.40
2018-06-27T18:02:42.975Z,19.40
2018-06-27T18:05:15.551Z,19.50
2018-06-27T18:07:47.874Z,19.60
2018-06-27T18:10:20.749Z,19.80
2018-06-27T18:12:54.319Z,20.00
2018-06-27T18:15:27.143Z,20.30
2018-06-27T18:17:59.765Z,20.10
2018-06-27T18:20:34.428Z,20.00
2018-06-27T18:23:07.867Z,20.10
2018-06-27T18:25:42.821Z,20.00
2018-06-27T18:28:16.301Z,20.10
2018-06-27T18:30:53.111Z,20.20
2018-06-27T18:33:32.937Z,20.30
2018-06-27T18:36:08.156Z,20.20
2018-06-27T18:38:42.403Z,20.10
2018-06-27T18:41:16.401Z,20.00
2018-06-27T18:43:52.914Z,20.00
2018-06-27T18:46:27.044Z,20.10
2018-06-27T18:49:00.750Z,20.10
2018-06-27T18:51:58.415Z,20.10
2018-06-27T18:54:41.724Z,19.90
2018-06-27T18:57:36.688Z,20.00
2018-06-27T19:00:11.897Z,20.00
2018-06-27T19:02:45.629Z,20.00
2018-06-27T19:05:18.489Z,19.90
2018-06-27T19:10:23.931Z,19.40
2018-06-27T19:12:57.292Z,19.40
2018-06-27T19:18:02.968Z,19.30
2018-06-27T19:20:35.619Z,19.50
2018-06-27T19:23:09.362Z,19.70
2018-06-27T19:25:42.894Z,20.00
2018-06-27T19:28:17.858Z,20.20
2018-06-27T19:30:50.676Z,20.60
2018-06-27T19:33:23.182Z,20.90
2018-06-27T19:35:55.672Z,20.90
2018-06-27T19:38:26.463Z,21.00
2018-06-27T19:40:59.128Z,20.80
2018-06-27T19:43:30.167Z,20.90
2018-06-27T19:46:03.685Z,21.00
2018-06-27T19:48:35.862Z,21.10
2018-06-27T19:51:09.123Z,21.30
2018-06-27T19:53:41.064Z,21.50
2018-06-27T19:56:12.161Z,21.90
2018-06-27T19:58:46.920Z,22.00
2018-06-27T20:01:33.309Z,22.00
2018-06-27T20:04:13.790Z,22.10
2018-06-27T20:07:10.194Z,22.10
2018-06-27T20:09:44.513Z,21.90
2018-06-27T20:14:46.499Z,22.20
2018-06-27T20:17:18.827Z,22.50
2018-06-27T20:19:51.457Z,22.90
2018-06-27T20:22:24.220Z,23.10
2018-06-27T20:24:57.985Z,23.10
2018-06-27T20:27:30.475Z,23.10
2018-06-27T20:30:03.217Z,23.20
2018-06-27T20:35:07.140Z,23.20
2018-06-27T20:37:39.615Z,22.70
2018-06-27T20:40:12.065Z,22.50
2018-06-27T20:42:44.726Z,22.40
2018-06-27T20:45:17.308Z,22.50
2018-06-27T20:47:49.624Z,22.60
2018-06-27T20:50:22.872Z,22.60
2018-06-27T20:52:55.453Z,22.50
2018-06-27T20:55:26.141Z,22.30
2018-06-27T21:01:19.678Z,22.30
2018-06-27T21:03:52.141Z,22.40
2018-06-27T21:06:24.471Z,22.80
2018-06-27T21:08:57.163Z,22.80
2018-06-27T21:11:29.473Z,22.50
2018-06-27T21:16:32.881Z,22.50
2018-06-27T21:19:06.039Z,22.50
2018-06-27T21:21:38.345Z,22.70
2018-06-27T21:24:10.560Z,22.90
2018-06-27T21:26:42.743Z,22.90
2018-06-27T21:29:14.999Z,22.90
2018-06-27T21:31:49.416Z,23.20
2018-06-27T21:34:21.745Z,22.90
2018-06-27T21:36:54.254Z,22.60
2018-06-27T21:39:26.505Z,22.50
2018-06-27T21:41:58.871Z,22.50
2018-06-27T21:44:31.115Z,22.30
2018-06-27T21:47:03.392Z,22.20
2018-06-27T21:49:35.705Z,22.00
2018-06-27T21:52:07.923Z,22.00
2018-06-27T21:54:40.716Z,22.00
2018-06-27T21:57:13.075Z,22.00
2018-06-27T21:59:45.317Z,22.10
2018-06-27T22:02:17.691Z,22.30
2018-06-27T22:04:50.092Z,22.20
2018-06-27T22:07:22.328Z,22.00
2018-06-27T22:09:54.827Z,21.70
2018-06-27T22:12:27.502Z,21.60
2018-06-27T22:14:59.882Z,21.50
2018-06-27T22:17:32.377Z,21.70
2018-06-27T22:20:04.735Z,21.80
2018-06-27T22:22:37.307Z,22.00
2018-06-27T22:25:10.153Z,22.30
2018-06-27T22:27:42.821Z,22.50
2018-06-27T22:30:15.053Z,22.70
2018-06-27T22:32:49.919Z,22.70
2018-06-27T22:35:25.307Z,22.40
2018-06-27T22:37:57.818Z,22.00
2018-06-27T22:40:30.096Z,21.60
2018-06-27T22:43:02.422Z,21.10
2018-06-27T22:45:34.773Z,20.90
2018-06-27T22:51:28.006Z,20.50
2018-06-27T22:54:32.847Z,20.30
2018-06-27T22:57:05.230Z,19.90
2018-06-27T22:59:37.565Z,19.50
2018-06-27T23:02:10.028Z,19.30
2018-06-27T23:04:42.911Z,19.20
2018-06-27T23:07:13.588Z,19.10
2018-06-27T23:09:46.025Z,19.10
2018-06-27T23:12:18.417Z,19.00
2018-06-27T23:14:50.747Z,19.00
2018-06-27T23:17:23.177Z,19.00
2018-06-27T23:19:55.752Z,19.00
2018-06-27T23:22:37.367Z,19.00
2018-06-27T23:25:09.752Z,19.00
2018-06-27T23:27:42.426Z,19.00
2018-06-27T23:30:13.016Z,18.80
2018-06-27T23:32:43.827Z,18.60
2018-06-27T23:35:14.508Z,18.50
2018-06-27T23:37:45.173Z,18.30
2018-06-27T23:40:15.861Z,18.00
2018-06-27T23:42:46.511Z,17.70
2018-06-27T23:45:17.289Z,17.60
2018-06-27T23:47:48.759Z,17.50
2018-06-27T23:50:19.385Z,17.50
2018-06-27T23:52:50.088Z,17.60
2018-06-27T23:55:20.737Z,17.50
2018-06-27T23:57:51.369Z,17.50
